Time;durP1;ratioP1;P1;durP2;ratioP2;P2;SDS_P1;SDS_P2;PMS_P1;PMS_P2;Temp;Humidity;BMP_temperature;BMP_pressure;BME280_temperature;BME280_humidity;BME280_pressure;Samples;Min_cycle;Max_cycle;Signal;HPM_P1;HPM_P2
2023/12/10 00:00:12;;;;;;;;;;;;;;;23.79;32.72;99525.69;5020953;28;19918;-50
2023/12/10 00:02:37;;;;;;;;;;;;;;;23.79;32.52;99533.84;5018914;28;19941;-45
2023/12/10 00:05:03;;;;;;;;;;;;;;;23.76;32.34;99531.59;5027191;28;19912;-47
2023/12/10 00:07:28;;;;;;;;;;;;;;;23.74;32.67;99532.88;5029091;28;20009;-48
2023/12/10 00:09:53;;;;;;;;;;;;;;;23.72;32.46;99535.81;5038890;28;19914;-47
2023/12/10 00:12:18;;;;;;;;;;;;;;;23.71;32.68;99539.59;5011017;28;19918;-45
2023/12/10 00:14:46;;;;;;;;;;;;;;;23.71;32.53;99536.91;5009959;28;19945;-47
2023/12/10 00:17:11;;;;;;;;;;;;;;;23.70;32.45;99537.94;5035934;28;19929;-44
2023/12/10 00:19:36;;;;;;;;;;;;;;;23.67;32.61;99535.69;5023660;28;19913;-46
2023/12/10 00:22:01;;;;;;;;;;;;;;;23.66;32.59;99536.75;5019160;28;19914;-46
2023/12/10 00:24:27;;;;;;;;;;;;;;;23.62;32.72;99549.13;5036845;28;19984;-45
2023/12/10 00:26:52;;;;;;;;;;;;;;;23.58;32.78;99554.19;5035503;28;19918;-47
2023/12/10 00:29:17;;;;;;;;;;;;;;;23.55;32.50;99551.91;5015212;28;20122;-46
2023/12/10 00:31:43;;;;;;;;;;;;;;;23.54;32.68;99563.84;5043440;28;19925;-47
2023/12/10 00:34:09;;;;;;;;;;;;;;;23.53;32.72;99561.34;5065314;28;19937;-48
2023/12/10 00:36:34;;;;;;;;;;;;;;;23.52;32.56;99568.66;5012685;28;19965;-46
2023/12/10 00:38:59;;;;;;;;;;;;;;;23.50;32.57;99580.81;5032687;28;19920;-47
2023/12/10 00:41:25;;;;;;;;;;;;;;;23.49;32.72;99584.56;5058822;28;19912;-45
2023/12/10 00:43:50;;;;;;;;;;;;;;;23.48;32.54;99591.06;5009346;28;19921;-47
2023/12/10 00:46:15;;;;;;;;;;;;;;;23.45;32.51;99584.22;5050288;28;19913;-49
2023/12/10 00:48:40;;;;;;;;;;;;;;;23.43;32.83;99584.44;5035183;28;19924;-51
2023/12/10 00:51:06;;;;;;;;;;;;;;;23.41;32.67;99581.13;5021963;28;19917;-49
2023/12/10 00:53:31;;;;;;;;;;;;;;;23.41;32.42;99575.72;5026074;28;19975;-49
2023/12/10 00:55:57;;;;;;;;;;;;;;;23.37;32.42;99571.81;5043444;28;19912;-50
2023/12/10 00:58:22;;;;;;;;;;;;;;;23.35;32.61;99579.34;5028682;28;20400;-46
2023/12/10 01:00:47;;;;;;;;;;;;;;;23.32;32.87;99581.66;5057203;28;19939;-47
2023/12/10 01:03:12;;;;;;;;;;;;;;;23.26;33.03;99580.72;5034897;28;19914;-47
2023/12/10 01:05:38;;;;;;;;;;;;;;;23.20;33.04;99585.19;5028201;28;19917;-48
2023/12/10 01:08:03;;;;;;;;;;;;;;;23.15;33.05;99595.03;5017678;28;19922;-48
2023/12/10 01:10:28;;;;;;;;;;;;;;;23.13;33.31;99589.84;5032580;28;19959;-45
2023/12/10 01:12:54;;;;;;;;;;;;;;;23.13;33.00;99605.28;5053018;28;19950;-48
2023/12/10 01:15:29;;;;;;;;;;;;;;;23.11;33.40;99594.69;5072067;28;19914;-48
2023/12/10 01:17:55;;;;;;;;;;;;;;;23.10;33.30;99594.91;5046917;28;20277;-45
2023/12/10 01:20:20;;;;;;;;;;;;;;;23.06;33.35;99599.13;5015892;28;20469;-50
2023/12/10 01:22:45;;;;;;;;;;;;;;;23.07;33.14;99606.22;5010532;28;19921;-46
2023/12/10 01:25:13;;;;;;;;;;;;;;;23.04;33.34;99606.66;5027063;28;19912;-47
2023/12/10 01:27:39;;;;;;;;;;;;;;;23.01;33.33;99597.09;5080784;28;19918;-48
2023/12/10 01:30:05;;;;;;;;;;;;;;;23.00;33.31;99597.34;5009518;28;19914;-46
2023/12/10 01:32:30;;;;;;;;;;;;;;;22.93;33.45;99603.66;5079702;28;19973;-49
2023/12/10 01:34:55;;;;;;;;;;;;;;;22.91;33.51;99611.19;5031446;28;19914;-48
2023/12/10 01:37:20;;;;;;;;;;;;;;;22.89;33.62;99601.59;5009934;28;19918;-47
2023/12/10 01:39:46;;;;;;;;;;;;;;;22.90;33.54;99597.88;5010074;28;20636;-47
2023/12/10 01:42:11;;;;;;;;;;;;;;;22.90;33.26;99598.69;5028140;28;20309;-47
2023/12/10 01:44:36;;;;;;;;;;;;;;;22.89;33.52;99598.88;5011581;28;19914;-48
2023/12/10 01:47:01;;;;;;;;;;;;;;;22.90;33.29;99606.00;5026137;28;20023;-48
2023/12/10 01:49:28;;;;;;;;;;;;;;;22.91;33.37;99599.53;5060440;28;19918;-49
2023/12/10 01:51:53;;;;;;;;;;;;;;;22.90;33.41;99609.53;5066745;28;19914;-48
2023/12/10 01:54:22;;;;;;;;;;;;;;;22.90;33.35;99614.97;5014594;28;19924;-46
2023/12/10 01:56:48;;;;;;;;;;;;;;;22.90;33.26;99603.28;5033130;28;19980;-47
2023/12/10 01:59:13;;;;;;;;;;;;;;;22.92;33.38;99603.88;5069871;28;19913;-48
2023/12/10 02:01:38;;;;;;;;;;;;;;;22.89;33.47;99599.69;5019463;28;19923;-46
2023/12/10 02:04:05;;;;;;;;;;;;;;;22.89;33.28;99607.81;5030138;28;19912;-46
2023/12/10 02:06:30;;;;;;;;;;;;;;;22.87;33.35;99601.81;5049220;28;19928;-49
2023/12/10 02:08:56;;;;;;;;;;;;;;;22.87;33.54;99606.41;5006896;28;19945;-45
2023/12/10 02:11:21;;;;;;;;;;;;;;;22.86;33.17;99611.00;5035068;28;20291;-49
2023/12/10 02:13:47;;;;;;;;;;;;;;;22.84;33.13;99615.81;5033043;28;19912;-48
2023/12/10 02:16:12;;;;;;;;;;;;;;;22.83;33.42;99627.72;5024225;28;19914;-47
2023/12/10 02:18:37;;;;;;;;;;;;;;;22.83;33.24;99621.47;5026522;28;19916;-48
2023/12/10 02:21:03;;;;;;;;;;;;;;;22.77;33.51;99611.53;5030770;28;20292;-49
2023/12/10 02:23:33;;;;;;;;;;;;;;;22.73;33.52;99611.16;5005530;28;20277;-51
2023/12/10 02:25:58;;;;;;;;;;;;;;;22.71;33.61;99619.50;5071361;28;19914;-49
2023/12/10 02:28:24;;;;;;;;;;;;;;;22.69;33.70;99618.91;5033628;28;19924;-49
2023/12/10 02:30:49;;;;;;;;;;;;;;;22.70;33.36;99623.28;5067085;28;19916;-50
2023/12/10 02:33:15;;;;;;;;;;;;;;;22.66;33.55;99627.47;5017707;28;19916;-46
2023/12/10 02:35:40;;;;;;;;;;;;;;;22.61;33.65;99646.28;5025112;28;19917;-49
2023/12/10 02:38:05;;;;;;;;;;;;;;;22.58;33.76;99638.59;5041519;28;20430;-47
2023/12/10 02:40:30;;;;;;;;;;;;;;;22.53;34.03;99643.88;5089189;28;20538;-47
2023/12/10 02:42:56;;;;;;;;;;;;;;;22.52;33.79;99641.41;5030382;28;19914;-48
2023/12/10 02:45:21;;;;;;;;;;;;;;;22.49;33.86;99644.53;5022789;28;19938;-47
2023/12/10 02:47:46;;;;;;;;;;;;;;;22.46;33.88;99646.63;5013063;28;19914;-47
2023/12/10 02:50:11;;;;;;;;;;;;;;;22.45;34.08;99655.81;5032493;28;19938;-48
2023/12/10 02:52:37;;;;;;;;;;;;;;;22.44;33.93;99650.63;5061351;28;20449;-48
2023/12/10 02:55:03;;;;;;;;;;;;;;;22.40;34.26;99655.66;5056216;28;19922;-48
2023/12/10 02:57:28;;;;;;;;;;;;;;;22.37;34.04;99649.84;5048047;28;19928;-48
2023/12/10 02:59:53;;;;;;;;;;;;;;;22.34;34.35;99653.81;5025645;28;19914;-50
2023/12/10 03:02:19;;;;;;;;;;;;;;;22.30;34.35;99651.78;5012984;28;19920;-50
2023/12/10 03:04:44;;;;;;;;;;;;;;;22.28;34.17;99662.03;5018733;28;19959;-50
2023/12/10 03:07:09;;;;;;;;;;;;;;;22.24;34.22;99656.22;5014802;28;19925;-49
2023/12/10 03:09:34;;;;;;;;;;;;;;;22.20;34.47;99658.53;5009954;28;19922;-48
2023/12/10 03:12:00;;;;;;;;;;;;;;;22.17;34.36;99656.28;5026671;28;19921;-47
2023/12/10 03:14:25;;;;;;;;;;;;;;;22.13;34.43;99660.47;5034260;28;19920;-47
2023/12/10 03:16:50;;;;;;;;;;;;;;;22.12;34.21;99660.66;5012718;28;19945;-51
2023/12/10 03:19:15;;;;;;;;;;;;;;;22.09;34.51;99656.53;5015011;28;19923;-47
2023/12/10 03:21:41;;;;;;;;;;;;;;;22.06;34.67;99667.78;5037080;28;20306;-45
2023/12/10 03:24:06;;;;;;;;;;;;;;;22.04;34.51;99669.03;5017188;28;19924;-50
2023/12/10 03:26:31;;;;;;;;;;;;;;;22.01;34.46;99666.78;5016445;28;19916;-50
2023/12/10 03:28:56;;;;;;;;;;;;;;;21.98;34.78;99668.03;5028623;28;19919;-48
2023/12/10 03:31:21;;;;;;;;;;;;;;;21.96;34.86;99678.25;5021731;28;19918;-48
2023/12/10 03:33:49;;;;;;;;;;;;;;;21.93;34.82;99662.47;5008258;28;19925;-46
2023/12/10 03:36:15;;;;;;;;;;;;;;;21.90;34.95;99671.00;5019245;28;19914;-47
2023/12/10 03:38:41;;;;;;;;;;;;;;;21.86;35.01;99662.50;5017442;28;19921;-51
2023/12/10 03:41:06;;;;;;;;;;;;;;;21.84;35.03;99667.31;5008485;28;19924;-50
2023/12/10 03:43:31;;;;;;;;;;;;;;;21.81;34.68;99670.44;5022288;28;19940;-46
2023/12/10 03:45:56;;;;;;;;;;;;;;;21.80;34.81;99668.78;5054438;28;19920;-49
2023/12/10 03:48:21;;;;;;;;;;;;;;;21.75;35.17;99676.72;5007168;28;19917;-49
2023/12/10 03:50:47;;;;;;;;;;;;;;;21.75;35.14;99681.28;5026721;28;19921;-48
2023/12/10 03:53:12;;;;;;;;;;;;;;;21.73;34.94;99677.97;5035761;28;19914;-47
2023/12/10 03:55:37;;;;;;;;;;;;;;;21.68;35.00;99676.75;5009082;28;19913;-48
2023/12/10 03:58:02;;;;;;;;;;;;;;;21.66;34.92;99684.28;5028103;28;19917;-48
2023/12/10 04:00:28;;;;;;;;;;;;;;;21.63;35.39;99670.34;5042828;28;19912;-46
2023/12/10 04:02:54;;;;;;;;;;;;;;;21.60;35.42;99678.88;5064876;28;19909;-46
2023/12/10 04:05:20;;;;;;;;;;;;;;;21.57;35.35;99665.78;5033915;28;19940;-46
2023/12/10 04:07:46;;;;;;;;;;;;;;;21.55;35.38;99681.41;5046594;28;19924;-46
2023/12/10 04:10:12;;;;;;;;;;;;;;;21.54;35.46;99693.28;5058304;28;20296;-47
2023/12/10 04:12:37;;;;;;;;;;;;;;;21.50;35.55;99683.94;5016301;28;19917;-47
2023/12/10 04:15:03;;;;;;;;;;;;;;;21.46;35.56;99689.78;5032536;28;20032;-49
2023/12/10 04:17:28;;;;;;;;;;;;;;;21.45;35.54;99689.97;5013062;28;19961;-47
2023/12/10 04:19:54;;;;;;;;;;;;;;;21.42;35.51;99709.34;5039526;28;19912;-48
2023/12/10 04:22:19;;;;;;;;;;;;;;;21.37;35.66;99701.88;5056182;28;19914;-47
2023/12/10 04:24:44;;;;;;;;;;;;;;;21.36;35.81;99702.91;5029325;28;19913;-47
2023/12/10 04:27:09;;;;;;;;;;;;;;;21.34;35.57;99694.19;5006826;28;19930;-47
2023/12/10 04:29:35;;;;;;;;;;;;;;;21.33;35.80;99699.81;5015498;28;19914;-46
2023/12/10 04:32:00;;;;;;;;;;;;;;;21.30;35.63;99702.91;5034631;28;19916;-46
2023/12/10 04:34:25;;;;;;;;;;;;;;;21.29;35.74;99703.97;5029474;28;19918;-45
2023/12/10 04:36:50;;;;;;;;;;;;;;;21.17;35.92;99696.50;5036522;28;19992;-47
2023/12/10 04:39:16;;;;;;;;;;;;;;;21.24;35.86;99715.41;5067214;28;19967;-47
2023/12/10 04:41:41;;;;;;;;;;;;;;;21.20;35.91;99717.72;5073136;28;19917;-46
2023/12/10 04:44:07;;;;;;;;;;;;;;;21.17;35.73;99718.13;5013941;28;19919;-48
2023/12/10 04:46:32;;;;;;;;;;;;;;;21.15;35.94;99719.38;5020524;28;19962;-45
2023/12/10 04:48:57;;;;;;;;;;;;;;;21.11;35.98;99719.00;5067698;28;19921;-47
2023/12/10 04:51:24;;;;;;;;;;;;;;;21.09;36.09;99712.13;5011315;28;19918;-48
2023/12/10 04:53:49;;;;;;;;;;;;;;;21.04;36.28;99718.16;5041701;28;19929;-47
2023/12/10 04:56:14;;;;;;;;;;;;;;;21.01;36.30;99723.97;5019016;28;19917;-48
2023/12/10 04:58:39;;;;;;;;;;;;;;;20.97;36.07;99720.88;5019825;28;20136;-46
2023/12/10 05:01:05;;;;;;;;;;;;;;;20.96;36.07;99730.03;5034262;28;19912;-47
2023/12/10 05:03:30;;;;;;;;;;;;;;;20.95;36.38;99735.66;5028705;28;19918;-51
2023/12/10 05:05:55;;;;;;;;;;;;;;;20.93;36.18;99735.84;5020224;28;20007;-45
2023/12/10 05:08:21;;;;;;;;;;;;;;;20.91;36.38;99734.41;5029122;28;19973;-47
2023/12/10 05:10:46;;;;;;;;;;;;;;;20.89;36.26;99745.41;5043610;28;19918;-46
2023/12/10 05:13:11;;;;;;;;;;;;;;;20.88;36.14;99742.94;5010066;28;20336;-45
2023/12/10 05:15:36;;;;;;;;;;;;;;;20.87;36.52;99768.28;5017749;28;19913;-46
2023/12/10 05:18:02;;;;;;;;;;;;;;;20.83;36.29;99754.38;5039657;28;19922;-48
2023/12/10 05:20:28;;;;;;;;;;;;;;;20.82;36.29;99759.97;5010899;28;19914;-47
2023/12/10 05:22:53;;;;;;;;;;;;;;;20.81;36.28;99767.22;5020744;28;19918;-48
2023/12/10 05:25:18;;;;;;;;;;;;;;;20.80;36.27;99765.56;5044874;28;19948;-46
2023/12/10 05:27:43;;;;;;;;;;;;;;;20.78;36.60;99764.16;5081510;28;19914;-45
2023/12/10 05:30:09;;;;;;;;;;;;;;;20.79;36.40;99765.78;5011331;28;20004;-47
2023/12/10 05:32:35;;;;;;;;;;;;;;;20.78;36.58;99775.78;5047682;28;19925;-50
2023/12/10 05:35:00;;;;;;;;;;;;;;;20.77;36.53;99773.25;5025295;28;19918;-45
2023/12/10 05:37:25;;;;;;;;;;;;;;;20.77;36.30;99765.16;5012156;28;19917;-46
2023/12/10 05:39:50;;;;;;;;;;;;;;;20.76;36.61;99791.34;5025059;28;19916;-44
2023/12/10 05:42:16;;;;;;;;;;;;;;;20.75;36.42;99792.38;5061323;28;19969;-45
2023/12/10 05:44:41;;;;;;;;;;;;;;;20.74;36.56;99792.59;5021170;28;19921;-45
2023/12/10 05:47:06;;;;;;;;;;;;;;;20.73;36.49;99808.00;5047026;28;19925;-46
2023/12/10 05:49:31;;;;;;;;;;;;;;;20.75;36.61;99788.88;5032559;28;19913;-45
2023/12/10 05:51:57;;;;;;;;;;;;;;;20.74;36.42;99806.94;5013166;28;19943;-46
2023/12/10 05:54:22;;;;;;;;;;;;;;;20.74;36.68;99812.34;5026358;28;20065;-46
2023/12/10 05:56:47;;;;;;;;;;;;;;;20.76;36.56;99826.47;5013760;28;20372;-45
2023/12/10 05:59:14;;;;;;;;;;;;;;;20.77;36.54;99828.13;5042904;28;20375;-46
2023/12/10 06:01:40;;;;;;;;;;;;;;;20.78;36.49;99824.41;5055058;28;19951;-50
2023/12/10 06:04:05;;;;;;;;;;;;;;;20.80;36.23;99837.69;5037913;28;19914;-49
2023/12/10 06:06:30;;;;;;;;;;;;;;;20.80;36.27;99837.69;5017466;28;19962;-48
2023/12/10 06:08:55;;;;;;;;;;;;;;;20.82;36.46;99841.03;5008305;28;19963;-45
2023/12/10 06:11:21;;;;;;;;;;;;;;;20.81;36.28;99848.28;5039659;28;19917;-49
2023/12/10 06:13:46;;;;;;;;;;;;;;;20.83;36.20;99862.44;5029842;28;19914;-48
2023/12/10 06:16:12;;;;;;;;;;;;;;;20.83;36.31;99873.22;5025710;28;19925;-45
2023/12/10 06:18:37;;;;;;;;;;;;;;;20.85;36.27;99881.13;5044293;28;19924;-47
2023/12/10 06:21:02;;;;;;;;;;;;;;;20.86;36.18;99872.81;5024169;28;19918;-49
2023/12/10 06:23:27;;;;;;;;;;;;;;;20.87;36.48;99896.09;5008404;28;19922;-47
2023/12/10 06:25:52;;;;;;;;;;;;;;;20.89;36.09;99896.72;5025057;28;19920;-49
2023/12/10 06:28:18;;;;;;;;;;;;;;;20.88;36.16;99900.47;5027756;28;19918;-45
2023/12/10 06:30:43;;;;;;;;;;;;;;;20.89;36.10;99904.81;5022283;28;19914;-49
2023/12/10 06:33:08;;;;;;;;;;;;;;;20.91;36.03;99905.47;5029555;28;19925;-47
2023/12/10 06:35:33;;;;;;;;;;;;;;;20.94;35.97;99910.47;5029980;28;19914;-46
2023/12/10 06:37:58;;;;;;;;;;;;;;;20.94;36.30;99926.66;5009398;28;19981;-48
2023/12/10 06:40:24;;;;;;;;;;;;;;;20.94;36.14;99923.97;5024699;28;19925;-44
2023/12/10 06:42:49;;;;;;;;;;;;;;;20.96;35.92;99930.00;5028846;28;19917;-45
2023/12/10 06:45:14;;;;;;;;;;;;;;;20.96;36.22;99929.16;5019620;28;19972;-49
2023/12/10 06:47:40;;;;;;;;;;;;;;;20.96;36.27;99946.19;5029654;28;20422;-49
2023/12/10 06:50:06;;;;;;;;;;;;;;;20.98;35.93;99954.09;5041167;28;19995;-49
2023/12/10 06:52:32;;;;;;;;;;;;;;;21.01;35.99;99953.69;5008056;28;19918;-48
2023/12/10 06:54:57;;;;;;;;;;;;;;;21.03;35.95;99970.53;5007663;28;19933;-50
2023/12/10 06:57:22;;;;;;;;;;;;;;;21.03;36.18;99967.84;5034695;28;19961;-48
2023/12/10 06:59:47;;;;;;;;;;;;;;;21.06;35.91;99971.97;5029798;28;19913;-47
2023/12/10 07:02:13;;;;;;;;;;;;;;;21.06;36.24;99989.03;5065688;28;19932;-47
2023/12/10 07:04:40;;;;;;;;;;;;;;;21.10;35.88;99997.56;5024943;28;20213;-47
2023/12/10 07:07:05;;;;;;;;;;;;;;;21.10;36.26;100003.81;5032308;28;19936;-48
2023/12/10 07:09:30;;;;;;;;;;;;;;;21.13;35.84;100000.69;5006402;28;19938;-48
2023/12/10 07:11:56;;;;;;;;;;;;;;;21.17;35.97;100011.94;5007353;28;19972;-47
2023/12/10 07:14:21;;;;;;;;;;;;;;;21.18;35.82;100003.63;5011126;28;19914;-46
2023/12/10 07:16:46;;;;;;;;;;;;;;;21.22;35.92;100001.34;5000242;28;19925;-45
2023/12/10 07:19:11;;;;;;;;;;;;;;;21.22;35.81;100007.56;4999523;28;19932;-45
2023/12/10 07:21:37;;;;;;;;;;;;;;;21.25;36.25;100014.44;5015433;28;19987;-46
2023/12/10 07:24:03;;;;;;;;;;;;;;;21.28;35.90;100024.00;5001760;28;19914;-47
2023/12/10 07:26:28;;;;;;;;;;;;;;;21.30;35.95;100021.94;5001343;28;19918;-50
2023/12/10 07:28:53;;;;;;;;;;;;;;;21.32;35.87;100038.81;5014376;28;20295;-48
2023/12/10 07:31:18;;;;;;;;;;;;;;;21.34;36.12;100042.16;5002016;28;20018;-45
2023/12/10 07:33:44;;;;;;;;;;;;;;;21.36;36.28;100043.59;4999146;28;20291;-47
2023/12/10 07:36:09;;;;;;;;;;;;;;;21.35;36.23;100047.34;4995872;28;19925;-49
2023/12/10 07:38:34;;;;;;;;;;;;;;;21.37;36.05;100075.03;5006399;28;19918;-46
2023/12/10 07:40:59;;;;;;;;;;;;;;;21.36;36.21;100067.09;5012750;28;20357;-44
2023/12/10 07:43:25;;;;;;;;;;;;;;;21.35;36.08;100085.19;5000926;28;20327;-49
2023/12/10 07:45:50;;;;;;;;;;;;;;;21.35;36.16;100078.97;4999343;28;20414;-50
2023/12/10 07:48:15;;;;;;;;;;;;;;;21.36;36.11;100092.25;4996972;28;19913;-49
2023/12/10 07:50:41;;;;;;;;;;;;;;;21.40;36.17;100093.53;4994796;28;19918;-49
2023/12/10 07:53:06;;;;;;;;;;;;;;;21.43;36.14;100093.13;5007816;28;20389;-46
2023/12/10 07:55:31;;;;;;;;;;;;;;;21.09;36.08;100042.69;5066817;28;19918;-47
2023/12/10 07:57:56;;;;;;;;;;;;;;;21.49;36.12;100114.97;5079475;28;19975;-48
2023/12/10 08:00:22;;;;;;;;;;;;;;;21.46;36.08;100113.53;4995554;28;19936;-46
2023/12/10 08:02:47;;;;;;;;;;;;;;;21.50;36.08;100135.59;4997772;28;19917;-48
2023/12/10 08:05:12;;;;;;;;;;;;;;;21.51;35.85;100132.69;5002963;28;19918;-50
2023/12/10 08:07:37;;;;;;;;;;;;;;;21.51;35.86;100129.97;5015175;28;19921;-50
2023/12/10 08:10:05;;;;;;;;;;;;;;;21.55;35.75;100144.75;5062825;28;19914;-47
2023/12/10 08:12:30;;;;;;;;;;;;;;;21.57;35.89;100147.25;5002261;28;19914;-46
2023/12/10 08:14:55;;;;;;;;;;;;;;;21.58;35.97;100154.31;5000876;28;19924;-46
2023/12/10 08:17:20;;;;;;;;;;;;;;;21.61;36.02;100170.16;4997842;28;19922;-46
2023/12/10 08:19:46;;;;;;;;;;;;;;;21.63;35.78;100174.31;4999123;28;19914;-49
2023/12/10 08:22:13;;;;;;;;;;;;;;;21.67;35.85;100193.69;5005948;28;20454;-48
2023/12/10 08:24:38;;;;;;;;;;;;;;;21.69;35.87;100181.59;4994281;28;19918;-45
2023/12/10 08:27:04;;;;;;;;;;;;;;;21.73;35.78;100197.44;5000213;28;19941;-47
2023/12/10 08:29:29;;;;;;;;;;;;;;;21.75;35.64;100198.06;5012026;28;19921;-44
2023/12/10 08:31:54;;;;;;;;;;;;;;;21.78;35.49;100200.38;5005813;28;19914;-46
2023/12/10 08:34:20;;;;;;;;;;;;;;;21.80;35.32;100199.13;5070036;28;20380;-49
2023/12/10 08:36:45;;;;;;;;;;;;;;;21.82;35.50;100204.31;5006919;28;19917;-47
2023/12/10 08:39:10;;;;;;;;;;;;;;;21.84;35.39;100215.78;5005715;28;20355;-49
2023/12/10 08:41:36;;;;;;;;;;;;;;;21.86;35.58;100227.22;5002277;28;20261;-49
2023/12/10 08:44:01;;;;;;;;;;;;;;;21.86;35.58;100214.53;5012697;28;19956;-45
2023/12/10 08:46:27;;;;;;;;;;;;;;;21.88;35.63;100223.31;5012789;28;19919;-46
2023/12/10 08:48:52;;;;;;;;;;;;;;;21.93;35.48;100222.69;5008778;28;19918;-50
2023/12/10 08:51:17;;;;;;;;;;;;;;;21.96;35.59;100216.84;5000259;28;19914;-48
2023/12/10 08:53:42;;;;;;;;;;;;;;;22.00;35.17;100230.78;5019567;28;19925;-50
2023/12/10 08:56:08;;;;;;;;;;;;;;;22.02;35.19;100223.31;5010059;28;19925;-49
2023/12/10 08:58:33;;;;;;;;;;;;;;;22.02;35.26;100229.56;5008779;28;20328;-46
2023/12/10 09:00:59;;;;;;;;;;;;;;;22.06;35.44;100233.53;5006834;28;19925;-47
2023/12/10 09:03:24;;;;;;;;;;;;;;;22.08;35.22;100234.13;5004421;28;20756;-44
2023/12/10 09:05:50;;;;;;;;;;;;;;;22.07;35.17;100232.47;5006853;28;19918;-46
2023/12/10 09:08:16;;;;;;;;;;;;;;;22.09;35.06;100245.81;5017882;28;19923;-49
2023/12/10 09:10:41;;;;;;;;;;;;;;;22.09;34.93;100246.66;5007359;28;19920;-46
2023/12/10 09:13:06;;;;;;;;;;;;;;;22.10;35.21;100253.75;5007030;28;19918;-47
2023/12/10 09:15:31;;;;;;;;;;;;;;;22.10;34.98;100263.72;5021754;28;19922;-45
2023/12/10 09:17:56;;;;;;;;;;;;;;;22.13;35.04;100272.31;5005267;28;20025;-45
2023/12/10 09:20:22;;;;;;;;;;;;;;;22.16;34.77;100269.19;5003082;28;19913;-49
2023/12/10 09:22:47;;;;;;;;;;;;;;;22.18;34.72;100283.34;5015690;28;20300;-49
2023/12/10 09:25:12;;;;;;;;;;;;;;;22.19;34.61;100281.47;5005786;28;20376;-45
2023/12/10 09:27:37;;;;;;;;;;;;;;;22.24;34.75;100297.94;5003173;28;19924;-45
2023/12/10 09:30:03;;;;;;;;;;;;;;;22.23;34.74;100299.00;5006938;28;19914;-48
2023/12/10 09:32:29;;;;;;;;;;;;;;;22.25;34.43;100298.78;5010736;28;19945;-45
2023/12/10 09:34:54;;;;;;;;;;;;;;;22.25;34.74;100323.97;5019142;28;20425;-49
2023/12/10 09:37:19;;;;;;;;;;;;;;;22.27;34.36;100326.50;5009790;28;19919;-44
2023/12/10 09:39:44;;;;;;;;;;;;;;;22.28;34.51;100337.13;5015105;28;19917;-49
2023/12/10 09:42:10;;;;;;;;;;;;;;;22.28;34.44;100333.56;5011910;28;19929;-47
2023/12/10 09:44:35;;;;;;;;;;;;;;;22.29;34.42;100333.34;4999430;28;19918;-47
2023/12/10 09:47:00;;;;;;;;;;;;;;;22.31;34.62;100342.13;5085357;28;19917;-46
2023/12/10 09:49:26;;;;;;;;;;;;;;;22.35;34.55;100345.28;5007435;28;19918;-49
2023/12/10 09:51:51;;;;;;;;;;;;;;;22.38;34.68;100340.25;4998990;28;19961;-46
2023/12/10 09:54:20;;;;;;;;;;;;;;;22.42;34.43;100352.34;5016877;28;20381;-47
2023/12/10 09:56:45;;;;;;;;;;;;;;;22.45;34.66;100360.06;5008583;28;19918;-49
2023/12/10 09:59:11;;;;;;;;;;;;;;;22.46;34.52;100350.91;5007014;28;20004;-48
2023/12/10 10:01:36;;;;;;;;;;;;;;;22.46;34.52;100359.03;5018995;28;19916;-49
2023/12/10 10:04:03;;;;;;;;;;;;;;;22.51;34.28;100352.16;5011003;28;19985;-46
2023/12/10 10:06:29;;;;;;;;;;;;;;;22.49;34.45;100363.22;5072164;28;19987;-49
2023/12/10 10:08:54;;;;;;;;;;;;;;;22.51;34.65;100361.09;5027830;28;19918;-48
2023/12/10 10:11:19;;;;;;;;;;;;;;;22.50;34.24;100359.44;5045202;28;20008;-46
2023/12/10 10:13:51;;;;;;;;;;;;;;;22.49;34.28;100363.22;5006571;28;19917;-49
2023/12/10 10:16:16;;;;;;;;;;;;;;;22.50;34.29;100364.88;5001483;28;19918;-44
2023/12/10 10:18:43;;;;;;;;;;;;;;;22.53;34.40;100366.34;5019487;28;19989;-46
2023/12/10 10:21:09;;;;;;;;;;;;;;;22.55;34.22;100365.09;5005839;28;19917;-48
2023/12/10 10:23:34;;;;;;;;;;;;;;;22.54;34.14;100371.53;5064557;28;20473;-46
2023/12/10 10:26:00;;;;;;;;;;;;;;;22.58;34.23;100366.56;5011902;28;19912;-51
2023/12/10 10:28:25;;;;;;;;;;;;;;;22.60;33.94;100361.75;5061656;28;19921;-47
2023/12/10 10:30:51;;;;;;;;;;;;;;;22.60;34.10;100353.63;5070549;28;19930;-44
2023/12/10 10:33:16;;;;;;;;;;;;;;;22.62;33.87;100351.56;5070098;28;19920;-47
2023/12/10 10:35:41;;;;;;;;;;;;;;;22.66;33.87;100369.91;5066845;28;19962;-48
2023/12/10 10:38:06;;;;;;;;;;;;;;;22.71;33.89;100361.16;5009096;28;19928;-49
2023/12/10 10:40:32;;;;;;;;;;;;;;;22.76;33.95;100368.66;5016390;28;19922;-48
2023/12/10 10:42:57;;;;;;;;;;;;;;;22.78;33.73;100374.72;5008727;28;19922;-45
2023/12/10 10:45:22;;;;;;;;;;;;;;;22.78;33.57;100372.00;5000622;28;19947;-46
2023/12/10 10:47:47;;;;;;;;;;;;;;;22.78;33.72;100380.97;5011738;28;19914;-48
2023/12/10 10:50:12;;;;;;;;;;;;;;;22.79;33.62;100365.53;5006960;28;19949;-44
2023/12/10 10:52:38;;;;;;;;;;;;;;;22.85;33.67;100367.41;5067133;28;19913;-47
2023/12/10 10:55:03;;;;;;;;;;;;;;;22.89;33.48;100366.78;5055268;28;19922;-46
2023/12/10 10:57:29;;;;;;;;;;;;;;;22.92;33.64;100366.41;5064967;28;20009;-47
2023/12/10 10:59:54;;;;;;;;;;;;;;;22.94;33.32;100380.59;5003869;28;19914;-49
2023/12/10 11:02:19;;;;;;;;;;;;;;;22.98;33.48;100380.16;5050113;28;20003;-47
2023/12/10 11:04:45;;;;;;;;;;;;;;;22.98;33.43;100377.44;5037689;28;19987;-46
2023/12/10 11:07:10;;;;;;;;;;;;;;;22.95;33.51;100376.84;5015506;28;19922;-46
2023/12/10 11:09:54;;;;;;;;;;;;;;;23.02;33.24;100378.69;5011350;28;19968;-46
2023/12/10 11:12:43;;;;;;;;;;;;;;;23.04;33.53;100373.91;5012945;28;19941;-45
2023/12/10 11:15:14;;;;;;;;;;;;;;;23.11;33.45;100381.03;5017110;28;19916;-50
2023/12/10 11:17:52;;;;;;;;;;;;;;;23.16;33.31;100381.22;5006113;28;19928;-47
2023/12/10 11:20:36;;;;;;;;;;;;;;;23.22;33.25;100381.41;5013730;28;20013;-46
2023/12/10 11:23:05;;;;;;;;;;;;;;;23.27;33.02;100374.31;5002550;28;19922;-49
2023/12/10 11:25:31;;;;;;;;;;;;;;;23.31;33.22;100363.88;5010905;28;19912;-47
2023/12/10 11:27:57;;;;;;;;;;;;;;;23.34;33.04;100361.59;4999236;28;20293;-54
2023/12/10 11:30:22;;;;;;;;;;;;;;;23.36;33.23;100364.94;5006931;28;19918;-48
2023/12/10 11:32:47;;;;;;;;;;;;;;;23.38;33.09;100362.00;5013622;28;19913;-55
2023/12/10 11:35:14;;;;;;;;;;;;;;;23.40;33.32;100362.59;5041227;28;19913;-52
2023/12/10 11:37:40;;;;;;;;;;;;;;;23.43;32.88;100379.31;5016160;28;20011;-56
2023/12/10 11:40:08;;;;;;;;;;;;;;;23.47;32.87;100357.19;5004210;28;19918;-46
2023/12/10 11:42:33;;;;;;;;;;;;;;;23.50;33.07;100373.88;5015108;28;20406;-50
2023/12/10 11:44:58;;;;;;;;;;;;;;;23.54;32.98;100371.56;5018055;28;19981;-53
2023/12/10 11:47:23;;;;;;;;;;;;;;;23.54;32.71;100361.53;5023086;28;19912;-49
2023/12/10 11:49:48;;;;;;;;;;;;;;;23.56;32.74;100367.59;5029964;28;20354;-52
2023/12/10 11:52:14;;;;;;;;;;;;;;;23.60;32.58;100370.72;5010718;28;20711;-52
2023/12/10 11:54:39;;;;;;;;;;;;;;;23.62;32.51;100374.91;4998925;28;20526;-51
2023/12/10 11:57:04;;;;;;;;;;;;;;;23.64;32.61;100372.78;5009387;28;19940;-54
2023/12/10 11:59:29;;;;;;;;;;;;;;;23.72;32.30;100379.91;5066520;28;19977;-49
2023/12/10 12:01:55;;;;;;;;;;;;;;;23.76;32.49;100378.44;5007126;28;19918;-46
2023/12/10 12:04:23;;;;;;;;;;;;;;;23.77;32.43;100376.53;5069122;28;19922;-44
2023/12/10 12:06:48;;;;;;;;;;;;;;;23.79;32.47;100380.72;5014723;28;19914;-45
2023/12/10 12:09:15;;;;;;;;;;;;;;;23.82;32.32;100377.56;5014052;28;19923;-44
2023/12/10 12:11:40;;;;;;;;;;;;;;;23.85;32.03;100379.03;5069531;28;20009;-47
2023/12/10 12:14:05;;;;;;;;;;;;;;;23.90;32.20;100377.31;5027885;28;19921;-46
2023/12/10 12:16:30;;;;;;;;;;;;;;;23.94;32.00;100384.00;5019153;28;19918;-44
2023/12/10 12:18:56;;;;;;;;;;;;;;;23.92;32.11;100375.25;5021058;28;19916;-45
2023/12/10 12:21:21;;;;;;;;;;;;;;;23.91;32.12;100384.41;5044700;28;19912;-45
2023/12/10 12:23:47;;;;;;;;;;;;;;;23.89;32.46;100383.81;5034499;28;20391;-44
2023/12/10 12:26:13;;;;;;;;;;;;;;;23.89;32.28;100380.25;5072302;28;20252;-44
2023/12/10 12:28:38;;;;;;;;;;;;;;;23.90;32.40;100371.88;5043127;28;19918;-48
2023/12/10 12:31:04;;;;;;;;;;;;;;;23.95;32.09;100371.25;5032424;28;19913;-45
2023/12/10 12:33:29;;;;;;;;;;;;;;;23.96;32.20;100378.38;5024145;28;19958;-47